CheckWX is a tool to help pilots better visualize weather data.  It is not intended as a substitute for an official pre-flight weather briefing.

21:07:00 UTC

KLVJ METAR
Pearland Regional Airport
Houston, Texas, USA
Current

14 mins ago

KLVJ 232053Z AUTO 33010KT 10SM CLR 22/09 A2989 RMK AO2 SLP122 60000 T02220089 58002
Observed
Feb-23 @ 20:53 UTC
Wind
  • 330° at 10 KTS
Visibility
10 SM
Flight Rules
VFR
Cloud Levels
  • Clear skies
Temperature
22°C / 72°F
Dewpoint
C / 48°F
Humidity
44%
Altimeter
29.89" Hg
Pressure
1012.2 hPa
Previous

1 hour ago

KLVJ 231953Z AUTO 32010KT 10SM CLR 22/09 A2991 RMK AO2 SLP126 T02220089
Observed
Feb-23 @ 19:53 UTC
Wind
  • 320° at 10 KTS
Visibility
10 SM
Flight Rules
VFR
Cloud Levels
  • Clear skies
Temperature
22°C / 72°F
Dewpoint
C / 48°F
Humidity
44%
Altimeter
29.91" Hg
Pressure
1012.6 hPa
Previous

2 hours ago

KLVJ 231853Z AUTO 32011KT 10SM FEW055 23/14 A2991 RMK AO2 PK WND 27030/1757 WSHFT 1752 RAE1757 SLP127 P0000 T02280144
Observed
Feb-23 @ 18:53 UTC
Wind
  • 320° at 11 KTS
Visibility
10 SM
Flight Rules
VFR
Cloud Levels
  • Few at 5,500' AGL
Temperature
23°C / 73°F
Dewpoint
14°C / 57°F
Humidity
57%
Altimeter
29.91" Hg
Pressure
1012.7 hPa
Current Rain
0.01"